Time;durP1;ratioP1;P1;durP2;ratioP2;P2;SDS_P1;SDS_P2;PMS_P1;PMS_P2;Temp;Humidity;BMP_temperature;BMP_pressure;BME280_temperature;BME280_humidity;BME280_pressure;Samples;Min_cycle;Max_cycle;Signal;HPM_P1;HPM_P2
2022/06/27 00:01:05;;;;;;;6.97;6.20;;;;;;;29.59;40.28;100935.06;5007031;28;97110;-72
2022/06/27 00:03:32;;;;;;;7.53;6.57;;;;;;;29.56;40.61;100941.69;5010034;28;99194;-72
2022/06/27 00:05:58;;;;;;;6.65;6.05;;;;;;;29.60;40.36;100932.13;5008012;28;98827;-72
2022/06/27 00:08:26;;;;;;;7.75;6.55;;;;;;;29.60;40.22;100940.31;5002466;28;98192;-71
2022/06/27 00:10:53;;;;;;;8.43;6.43;;;;;;;29.58;40.15;100936.94;4996113;28;97373;-72
2022/06/27 00:13:19;;;;;;;11.25;6.32;;;;;;;29.63;40.38;100948.16;5005551;28;99552;-71
2022/06/27 00:15:46;;;;;;;7.82;6.55;;;;;;;29.58;40.33;100945.09;5008809;28;99525;-70
2022/06/27 00:18:13;;;;;;;8.40;6.13;;;;;;;29.60;40.28;100962.09;5007139;28;96998;-70
2022/06/27 00:20:39;;;;;;;9.98;6.53;;;;;;;29.42;40.30;100958.72;5009433;28;97068;-71
2022/06/27 00:23:05;;;;;;;6.75;6.15;;;;;;;29.49;39.99;100957.00;5008378;28;98260;-70
2022/06/27 00:25:33;;;;;;;7.05;6.45;;;;;;;29.54;39.99;100953.75;5010023;28;98194;-70
2022/06/27 00:28:00;;;;;;;9.55;6.38;;;;;;;29.58;39.97;100955.13;5003924;28;99022;-70
2022/06/27 00:30:26;;;;;;;7.30;6.03;;;;;;;29.74;39.94;100960.53;5011224;28;97389;-70
2022/06/27 00:32:53;;;;;;;8.10;6.45;;;;;;;29.73;40.25;100966.19;5007888;28;99030;-70
2022/06/27 00:35:19;;;;;;;9.18;7.25;;;;;;;29.76;40.21;100963.09;5008152;28;97745;-71
2022/06/27 00:37:45;;;;;;;7.68;6.80;;;;;;;29.66;40.30;100955.97;5002835;28;96873;-70
2022/06/27 00:40:12;;;;;;;6.57;6.07;;;;;;;29.51;40.93;100951.41;5007054;28;96962;-70
2022/06/27 00:42:40;;;;;;;7.10;5.97;;;;;;;29.46;41.26;100960.09;5008462;28;99005;-72
2022/06/27 00:45:08;;;;;;;7.68;6.85;;;;;;;29.50;41.34;100964.16;5006549;28;99735;-71
2022/06/27 00:47:34;;;;;;;7.05;6.32;;;;;;;29.17;42.17;100963.28;5007086;28;97474;-70
2022/06/27 00:50:00;;;;;;;6.95;6.22;;;;;;;29.27;43.03;100957.69;5007281;28;97203;-71
2022/06/27 00:52:27;;;;;;;7.22;6.53;;;;;;;29.28;43.08;100951.19;5005179;28;98220;-71
2022/06/27 00:54:54;;;;;;;6.60;6.00;;;;;;;29.13;43.16;100961.06;5007432;28;98676;-70
2022/06/27 00:57:20;;;;;;;7.05;5.60;;;;;;;29.08;43.32;100958.03;5005703;28;98573;-71
2022/06/27 00:59:48;;;;;;;9.32;6.22;;;;;;;28.96;43.93;100962.91;5007586;28;97757;-72
2022/06/27 01:02:15;;;;;;;7.15;6.40;;;;;;;28.86;44.21;100952.22;5002349;28;100741;-72
2022/06/27 01:04:42;;;;;;;6.50;5.90;;;;;;;28.89;44.46;100949.13;5000603;28;98847;-72
2022/06/27 01:07:10;;;;;;;8.52;7.13;;;;;;;28.59;44.85;100951.59;5006651;28;97308;-72
2022/06/27 01:09:37;;;;;;;10.07;6.85;;;;;;;28.71;44.42;100947.53;5008094;28;99021;-71
2022/06/27 01:12:04;;;;;;;7.38;6.57;;;;;;;28.67;44.32;100954.34;5007503;28;99938;-71
2022/06/27 01:14:31;;;;;;;7.88;7.15;;;;;;;28.56;44.56;100960.94;5000247;28;98938;-71
2022/06/27 01:16:59;;;;;;;8.75;6.72;;;;;;;28.53;44.92;100953.97;5005755;28;97174;-71
2022/06/27 01:19:26;;;;;;;8.15;6.45;;;;;;;28.30;45.93;100952.00;5006414;28;96855;-71
2022/06/27 01:21:55;;;;;;;8.88;6.47;;;;;;;28.27;46.49;100955.06;5006387;28;97852;-72
2022/06/27 01:24:24;;;;;;;11.30;7.13;;;;;;;28.16;47.14;100958.09;5000865;28;98805;-71
2022/06/27 01:26:51;;;;;;;10.75;7.45;;;;;;;28.26;46.92;100951.50;5003774;28;98758;-71
2022/06/27 01:29:19;;;;;;;9.95;7.63;;;;;;;28.22;47.00;100949.28;5008494;28;96909;-71
2022/06/27 01:31:46;;;;;;;10.98;7.10;;;;;;;28.10;47.45;100951.38;5005122;28;97792;-71
2022/06/27 01:34:13;;;;;;;7.65;6.85;;;;;;;28.19;46.92;100949.59;5001653;28;100376;-71
2022/06/27 01:36:43;;;;;;;9.18;7.50;;;;;;;28.06;47.11;100952.72;5006154;28;97586;-71
2022/06/27 01:39:10;;;;;;;8.50;7.05;;;;;;;27.95;47.35;100959.31;5007427;28;96895;-71
2022/06/27 01:41:39;;;;;;;8.32;7.47;;;;;;;27.92;47.52;100962.31;5008448;28;99360;-71
2022/06/27 01:44:06;;;;;;;8.90;7.00;;;;;;;28.00;47.54;100961.53;5000558;28;97661;-71
2022/06/27 01:46:44;;;;;;;8.77;7.85;;;;;;;27.79;48.23;100966.47;5006858;28;97231;-71
2022/06/27 01:49:12;;;;;;;8.70;7.25;;;;;;;28.00;47.34;100966.97;5004683;28;96955;-71
2022/06/27 01:51:39;;;;;;;9.75;7.55;;;;;;;27.98;47.34;100963.53;5008007;28;97864;-72
2022/06/27 01:54:08;;;;;;;8.43;7.13;;;;;;;28.04;47.30;100966.47;5005579;28;99801;-71
2022/06/27 01:56:35;;;;;;;10.20;7.63;;;;;;;28.09;47.36;100971.44;5000957;28;97579;-71
2022/06/27 01:59:03;;;;;;;9.63;7.38;;;;;;;28.07;47.43;100963.44;5010235;28;97724;-71
2022/06/27 02:01:30;;;;;;;10.02;7.68;;;;;;;27.89;47.73;100968.09;5007062;28;99000;-71
2022/06/27 02:03:59;;;;;;;10.20;7.55;;;;;;;28.03;47.21;100972.03;5010239;28;98853;-71
2022/06/27 02:06:25;;;;;;;11.90;7.97;;;;;;;27.98;47.56;100972.53;5009428;28;96818;-71
2022/06/27 02:08:53;;;;;;;12.02;7.82;;;;;;;27.90;48.03;100986.06;5008133;28;97435;-71
2022/06/27 02:11:20;;;;;;;8.07;6.97;;;;;;;27.97;47.63;100976.25;5005360;28;98865;-71
2022/06/27 02:13:47;;;;;;;9.38;7.90;;;;;;;27.98;47.55;100977.97;5008136;28;98836;-70
2022/06/27 02:16:19;;;;;;;8.20;7.38;;;;;;;28.08;47.18;100981.44;5001737;28;97377;-71
2022/06/27 02:18:46;;;;;;;7.82;7.13;;;;;;;28.19;46.29;100974.03;5002914;28;96970;-71
2022/06/27 02:21:14;;;;;;;10.27;7.50;;;;;;;28.36;44.50;100965.78;5009093;28;99568;-71
2022/06/27 02:23:41;;;;;;;8.07;7.38;;;;;;;28.42;44.86;100972.47;5006246;28;101606;-70
2022/06/27 02:26:08;;;;;;;8.68;7.45;;;;;;;28.27;45.48;100974.09;5011607;28;96752;-71
2022/06/27 02:28:35;;;;;;;11.27;7.80;;;;;;;28.36;44.09;100979.38;5007736;28;97358;-71
2022/06/27 02:31:03;;;;;;;8.38;7.57;;;;;;;28.58;43.42;100977.06;5008875;28;98923;-71
2022/06/27 02:33:35;;;;;;;8.98;7.43;;;;;;;28.52;43.53;100978.59;5006085;28;98661;-72
2022/06/27 02:36:03;;;;;;;8.95;8.10;;;;;;;28.66;42.79;100977.97;5010172;28;98243;-71
2022/06/27 02:38:30;;;;;;;9.50;8.07;;;;;;;28.60;42.96;100984.06;5008616;28;98134;-71
2022/06/27 02:40:59;;;;;;;11.90;8.27;;;;;;;28.67;42.72;100982.38;5009734;28;99285;-71
2022/06/27 02:43:28;;;;;;;8.57;7.68;;;;;;;28.42;42.77;100988.75;5009715;28;97665;-71
2022/06/27 02:45:55;;;;;;;9.13;8.18;;;;;;;28.46;42.90;101001.00;5010487;28;97381;-71
2022/06/27 02:48:24;;;;;;;11.30;8.18;;;;;;;28.48;42.81;100988.09;5001542;28;99261;-71
2022/06/27 02:50:54;;;;;;;9.73;8.63;;;;;;;28.51;43.04;100995.91;5006274;28;99285;-71
2022/06/27 02:53:26;;;;;;;10.90;8.70;;;;;;;28.40;43.23;100997.06;5007400;28;99757;-71
2022/06/27 02:55:55;;;;;;;12.10;8.27;;;;;;;28.57;42.84;101002.56;5008561;28;97534;-71
2022/06/27 02:58:28;;;;;;;11.63;8.13;;;;;;;28.42;43.53;101013.22;5004093;28;97489;-72
2022/06/27 03:00:57;;;;;;;10.52;8.95;;;;;;;28.51;43.15;101004.06;5009014;28;99395;-73
2022/06/27 03:03:26;;;;;;;9.95;8.13;;;;;;;28.49;43.20;101006.09;5001532;28;102065;-72
2022/06/27 03:05:58;;;;;;;9.02;7.93;;;;;;;28.47;43.30;101008.13;5008490;28;97216;-71
2022/06/27 03:08:25;;;;;;;9.13;8.25;;;;;;;28.46;43.47;101006.44;5000559;28;97554;-71
2022/06/27 03:10:51;;;;;;;10.07;7.95;;;;;;;28.48;43.46;101007.13;5008829;28;100345;-71
2022/06/27 03:13:18;;;;;;;9.00;7.93;;;;;;;28.39;43.10;101008.09;5007523;28;99826;-71
2022/06/27 03:15:45;;;;;;;9.13;8.20;;;;;;;28.25;43.58;101008.72;5002005;28;97262;-71
2022/06/27 03:18:15;;;;;;;10.50;8.10;;;;;;;28.29;43.61;101004.66;5009433;28;97078;-72
2022/06/27 03:20:42;;;;;;;11.98;8.52;;;;;;;28.06;44.04;101002.47;5006204;28;99011;-71
2022/06/27 03:23:10;;;;;;;14.15;9.23;;;;;;;28.07;44.17;101008.75;5010596;28;102098;-71
2022/06/27 03:25:36;;;;;;;11.43;8.23;;;;;;;28.25;43.86;101004.13;5010174;28;96757;-71
2022/06/27 03:28:03;;;;;;;9.73;8.82;;;;;;;28.30;43.74;101011.78;5005379;28;98738;-70
2022/06/27 03:30:30;;;;;;;9.85;8.38;;;;;;;28.28;43.76;101003.81;5007791;28;99250;-71
2022/06/27 03:32:57;;;;;;;10.02;8.35;;;;;;;28.29;43.89;101010.09;5006765;28;98943;-71
2022/06/27 03:35:23;;;;;;;10.02;9.18;;;;;;;28.31;43.86;101018.94;5005037;28;97001;-71
2022/06/27 03:37:49;;;;;;;9.02;8.23;;;;;;;28.25;43.92;101012.28;5002345;28;98470;-71
2022/06/27 03:40:18;;;;;;;13.10;9.07;;;;;;;28.33;43.71;101016.91;5006918;28;98178;-71
2022/06/27 03:42:44;;;;;;;9.30;8.40;;;;;;;28.32;43.80;101015.19;5007417;28;101163;-71
2022/06/27 03:45:11;;;;;;;11.68;10.02;;;;;;;28.35;43.89;101014.88;5002847;28;98890;-71
2022/06/27 03:47:46;;;;;;;11.35;9.50;;;;;;;28.27;44.28;101017.56;5009551;28;97072;-72
2022/06/27 03:50:13;;;;;;;10.65;9.40;;;;;;;28.36;43.98;101016.56;5004869;28;99204;-71
2022/06/27 03:52:39;;;;;;;12.18;9.88;;;;;;;28.60;43.39;101019.41;5007554;28;99038;-71
2022/06/27 03:55:07;;;;;;;11.25;8.88;;;;;;;28.55;43.65;101019.06;5007132;28;98861;-71
2022/06/27 03:57:36;;;;;;;10.27;8.35;;;;;;;28.53;43.96;101018.34;5004137;28;97372;-71
2022/06/27 04:00:03;;;;;;;10.48;9.02;;;;;;;28.65;43.48;101016.19;5004426;28;99528;-71
2022/06/27 04:02:30;;;;;;;10.90;8.85;;;;;;;28.69;43.35;101020.25;5008357;28;99141;-72
2022/06/27 04:04:56;;;;;;;9.77;8.77;;;;;;;28.66;43.38;101017.91;5009033;28;97371;-71
2022/06/27 04:07:23;;;;;;;10.10;9.00;;;;;;;28.58;43.92;101012.41;5009237;28;97310;-71
2022/06/27 04:09:49;;;;;;;9.52;8.40;;;;;;;28.69;43.43;101015.69;5006636;28;99224;-72
2022/06/27 04:12:16;;;;;;;9.88;8.98;;;;;;;28.64;43.71;101009.03;5006698;28;98833;-71
2022/06/27 04:14:44;;;;;;;10.73;9.60;;;;;;;28.72;43.28;101012.66;5005490;28;98761;-71
2022/06/27 04:17:10;;;;;;;12.07;9.98;;;;;;;28.75;43.24;101015.06;5002628;28;96854;-72
2022/06/27 04:19:37;;;;;;;11.55;8.93;;;;;;;28.60;43.37;101002.25;5009659;28;99238;-71
2022/06/27 04:22:04;;;;;;;12.35;8.75;;;;;;;28.92;42.91;101002.34;5005157;28;98334;-71
2022/06/27 04:24:30;;;;;;;14.38;9.57;;;;;;;28.81;43.12;100999.97;5001796;28;98873;-71
2022/06/27 04:26:57;;;;;;;9.15;8.18;;;;;;;29.09;42.96;100992.34;5007129;28;96755;-72
2022/06/27 04:29:26;;;;;;;15.40;9.02;;;;;;;29.01;42.81;100995.94;5003567;28;99277;-71
2022/06/27 04:31:54;;;;;;;10.10;9.10;;;;;;;29.15;42.36;100995.25;5004967;28;100017;-71
2022/06/27 04:34:20;;;;;;;8.98;8.13;;;;;;;29.28;42.44;100989.28;5006685;28;96875;-71
2022/06/27 04:36:47;;;;;;;10.23;9.23;;;;;;;29.27;42.16;100982.19;5008593;28;98644;-71
2022/06/27 04:39:15;;;;;;;11.63;9.13;;;;;;;29.36;42.37;100977.59;5006823;28;98130;-72
2022/06/27 04:41:42;;;;;;;9.70;8.77;;;;;;;29.52;41.52;100972.16;5003789;28;102014;-70
2022/06/27 04:44:09;;;;;;;11.73;9.38;;;;;;;29.49;41.90;100984.22;5007510;28;96872;-71
2022/06/27 04:46:35;;;;;;;14.18;9.85;;;;;;;29.61;41.82;100976.56;5005658;28;98627;-72
2022/06/27 04:49:03;;;;;;;10.63;8.43;;;;;;;29.81;41.35;100979.75;5002944;28;98937;-71
2022/06/27 04:51:30;;;;;;;12.85;8.80;;;;;;;29.88;40.76;100983.50;5005856;28;98958;-72
2022/06/27 04:53:57;;;;;;;10.73;8.15;;;;;;;30.12;40.41;100972.56;5006911;28;96860;-72
2022/06/27 04:56:23;;;;;;;10.00;8.75;;;;;;;30.05;40.66;100986.06;5008338;28;96954;-72
2022/06/27 04:58:50;;;;;;;11.38;9.32;;;;;;;30.26;40.41;100982.72;5005753;28;99759;-72
2022/06/27 05:01:17;;;;;;;11.52;8.90;;;;;;;30.51;40.34;100979.94;5005343;28;99747;-72
2022/06/27 05:03:43;;;;;;;11.07;8.02;;;;;;;30.80;39.42;100985.56;5008966;28;97295;-72
2022/06/27 05:06:11;;;;;;;11.20;8.43;;;;;;;31.43;38.43;100979.84;5004098;28;98689;-72
2022/06/27 05:08:37;;;;;;;12.90;8.45;;;;;;;32.27;36.48;100983.28;5002348;28;99544;-72
2022/06/27 05:11:03;;;;;;;9.98;8.38;;;;;;;32.81;35.72;100984.66;5002199;28;99115;-71
2022/06/27 05:13:31;;;;;;;8.88;8.00;;;;;;;32.64;35.62;100974.94;5002010;28;98852;-71
2022/06/27 05:15:58;;;;;;;9.73;8.43;;;;;;;32.08;36.41;100981.94;5002566;28;96929;-72
2022/06/27 05:18:25;;;;;;;9.20;8.00;;;;;;;33.97;33.57;100983.41;5005983;28;99405;-73
2022/06/27 05:20:51;;;;;;;9.25;8.35;;;;;;;34.77;31.55;100980.91;5002568;28;98754;-72
2022/06/27 05:23:19;;;;;;;11.98;8.52;;;;;;;34.36;31.90;100991.91;5001082;28;96810;-72
2022/06/27 05:25:45;;;;;;;8.93;8.02;;;;;;;34.12;32.43;100994.25;4997063;28;97237;-72
2022/06/27 05:28:12;;;;;;;8.77;7.38;;;;;;;33.34;34.03;100984.38;5008363;28;98940;-72
2022/06/27 05:30:39;;;;;;;8.65;7.65;;;;;;;32.90;34.64;100984.50;5001109;28;98877;-72
2022/06/27 05:33:05;;;;;;;9.15;8.35;;;;;;;32.90;34.85;100988.09;5005460;28;97029;-71
2022/06/27 05:35:32;;;;;;;11.35;8.43;;;;;;;32.87;34.97;100990.38;5006443;28;97205;-71
2022/06/27 05:37:59;;;;;;;9.50;8.32;;;;;;;32.74;35.31;100988.34;5006144;28;99404;-72
2022/06/27 05:40:27;;;;;;;11.48;8.65;;;;;;;32.61;35.62;100980.81;5005427;28;101451;-71
2022/06/27 05:42:57;;;;;;;11.93;8.48;;;;;;;32.63;35.68;100981.44;4999742;28;97531;-72
2022/06/27 05:45:24;;;;;;;9.88;8.88;;;;;;;32.55;35.92;100992.50;5005674;28;98419;-71
2022/06/27 05:47:59;;;;;;;9.80;8.60;;;;;;;32.47;35.93;100987.13;5003432;28;98869;-71
2022/06/27 05:50:26;;;;;;;12.03;8.90;;;;;;;32.48;35.96;100980.63;4996624;28;99652;-72
2022/06/27 05:52:52;;;;;;;10.65;9.23;;;;;;;32.71;35.72;100988.72;5006451;28;98679;-72
2022/06/27 05:55:21;;;;;;;10.73;9.23;;;;;;;32.79;36.13;100994.09;5005705;28;98700;-72
2022/06/27 05:57:49;;;;;;;9.82;8.80;;;;;;;32.75;35.70;100999.09;4998607;28;99135;-71
2022/06/27 06:00:17;;;;;;;12.43;8.95;;;;;;;32.77;35.44;100996.16;5001735;28;98846;-71
2022/06/27 06:02:43;;;;;;;9.63;8.65;;;;;;;32.87;35.38;100993.13;5004683;28;98601;-71
2022/06/27 06:05:11;;;;;;;10.93;8.90;;;;;;;32.72;35.79;100991.28;5001095;28;98379;-71
2022/06/27 06:07:38;;;;;;;13.85;7.85;;;;;;;32.96;35.08;100992.78;5000451;28;99471;-71
2022/06/27 06:10:05;;;;;;;14.85;8.18;;;;;;;32.81;35.57;101001.06;5003182;28;98662;-72
2022/06/27 06:12:32;;;;;;;11.65;8.60;;;;;;;32.95;35.27;101003.97;5004802;28;97214;-70
2022/06/27 06:15:02;;;;;;;10.15;7.68;;;;;;;32.82;35.03;100999.19;5005340;28;97890;-71
2022/06/27 06:17:29;;;;;;;10.43;7.30;;;;;;;32.93;35.43;100995.06;5001973;28;99029;-71
2022/06/27 06:19:56;;;;;;;12.23;7.55;;;;;;;32.95;35.11;100996.56;5000554;28;101291;-72
2022/06/27 06:22:22;;;;;;;8.32;7.43;;;;;;;33.17;35.22;100990.06;5006587;28;97351;-71
2022/06/27 06:24:49;;;;;;;12.25;7.75;;;;;;;33.25;35.09;100986.38;4999333;28;97970;-71
2022/06/27 06:27:16;;;;;;;11.82;8.32;;;;;;;33.48;34.75;100986.16;5003726;28;103422;-71
2022/06/27 06:29:43;;;;;;;15.75;8.23;;;;;;;33.54;34.44;100982.66;5003856;28;100763;-72
2022/06/27 06:32:11;;;;;;;9.05;7.50;;;;;;;33.60;34.29;100988.19;5003095;28;98370;-72
2022/06/27 06:34:39;;;;;;;15.32;7.80;;;;;;;33.63;34.12;100989.66;5001470;28;97747;-71
2022/06/27 06:37:06;;;;;;;9.20;7.88;;;;;;;33.74;34.06;100983.66;4998077;28;98915;-71
2022/06/27 06:39:33;;;;;;;8.57;7.68;;;;;;;33.93;33.78;100993.09;4999165;28;98776;-71
2022/06/27 06:42:00;;;;;;;9.57;7.70;;;;;;;34.10;33.57;100991.72;5008440;28;97174;-74
2022/06/27 06:44:27;;;;;;;7.68;6.63;;;;;;;34.31;33.10;100999.91;5007011;28;96940;-72
2022/06/27 06:46:55;;;;;;;11.32;7.43;;;;;;;34.25;32.99;101002.59;5003579;28;100546;-72
2022/06/27 06:49:23;;;;;;;10.60;7.10;;;;;;;34.34;32.66;100993.97;5006566;28;101868;-71
2022/06/27 06:51:50;;;;;;;9.35;7.28;;;;;;;34.46;32.89;100994.28;5011132;28;96781;-71
2022/06/27 06:54:17;;;;;;;12.77;7.53;;;;;;;34.37;32.26;100996.34;5007705;28;97745;-70
2022/06/27 06:56:45;;;;;;;11.50;7.40;;;;;;;34.67;32.40;100985.88;5009740;28;98973;-73
2022/06/27 06:59:12;;;;;;;9.93;7.15;;;;;;;34.77;32.28;100982.81;5005745;28;99607;-71
2022/06/27 07:01:39;;;;;;;10.63;7.28;;;;;;;34.92;32.22;100986.19;5004539;28;99764;-72
2022/06/27 07:04:05;;;;;;;9.38;6.47;;;;;;;34.52;32.00;100978.88;5003167;28;97934;-72
2022/06/27 07:06:33;;;;;;;8.27;7.28;;;;;;;34.29;32.70;100977.28;5004238;28;99055;-71
2022/06/27 07:09:01;;;;;;;11.77;7.13;;;;;;;34.59;32.14;100969.59;5001712;28;99125;-72
2022/06/27 07:11:29;;;;;;;8.60;7.00;;;;;;;34.53;32.29;100967.69;5005022;28;97841;-72
2022/06/27 07:13:56;;;;;;;8.00;7.15;;;;;;;34.48;32.51;100966.59;5010808;28;97340;-71
2022/06/27 07:16:24;;;;;;;8.75;7.07;;;;;;;34.84;32.48;100969.09;5000886;28;98950;-72
2022/06/27 07:18:53;;;;;;;9.60;6.45;;;;;;;35.16;31.28;100968.31;5007387;28;101830;-72
2022/06/27 07:21:20;;;;;;;11.05;7.22;;;;;;;35.23;31.45;100971.94;5010512;28;97170;-72
2022/06/27 07:23:50;;;;;;;7.47;5.90;;;;;;;35.00;31.08;100961.31;5000309;28;97065;-71
2022/06/27 07:26:18;;;;;;;14.38;5.30;;;;;;;34.89;30.98;100959.19;5006967;28;99371;-71
2022/06/27 07:28:45;;;;;;;14.23;5.50;;;;;;;34.84;30.92;100969.09;5007778;28;99142;-72
2022/06/27 07:31:15;;;;;;;7.38;5.80;;;;;;;35.20;30.76;100972.31;5008068;28;97270;-72
2022/06/27 07:33:42;;;;;;;11.82;5.32;;;;;;;34.87;30.96;100961.28;5005965;28;97783;-72
2022/06/27 07:36:14;;;;;;;8.80;5.20;;;;;;;35.02;30.69;100953.72;5003222;28;99347;-71
2022/06/27 07:38:41;;;;;;;5.95;5.32;;;;;;;34.93;30.43;100954.09;5003910;28;98854;-71
2022/06/27 07:41:10;;;;;;;7.88;4.75;;;;;;;35.31;29.95;100958.00;5008587;28;97455;-73
2022/06/27 07:43:37;;;;;;;12.18;5.03;;;;;;;35.38;29.70;100944.28;5003451;28;97060;-71
2022/06/27 07:46:04;;;;;;;8.05;5.13;;;;;;;35.52;29.11;100940.44;5010600;28;99832;-71
2022/06/27 07:48:31;;;;;;;6.47;4.50;;;;;;;35.49;29.45;100936.22;5002484;28;101342;-73
2022/06/27 07:50:58;;;;;;;4.80;4.40;;;;;;;35.70;28.69;100937.94;5005912;28;97832;-72
2022/06/27 07:53:26;;;;;;;5.43;4.50;;;;;;;35.82;29.17;100941.72;5007653;28;98431;-71
2022/06/27 07:55:55;;;;;;;7.18;4.40;;;;;;;35.85;28.92;100933.03;5000420;28;98445;-72
2022/06/27 07:58:30;;;;;;;5.15;4.35;;;;;;;35.71;29.16;100939.59;5007880;28;100645;-71
2022/06/27 08:00:58;;;;;;;4.75;4.25;;;;;;;35.39;29.33;100934.94;5008206;28;97582;-73
2022/06/27 08:03:39;;;;;;;6.82;4.30;;;;;;;35.40;29.26;100939.38;4994924;28;98582;-71
2022/06/27 08:06:07;;;;;;;4.95;3.80;;;;;;;35.52;28.60;100932.19;5005304;28;99459;-72
2022/06/27 08:08:37;;;;;;;7.53;3.90;;;;;;;35.79;28.35;100935.78;5002988;28;97919;-72
2022/06/27 08:11:04;;;;;;;11.55;4.65;;;;;;;35.90;28.14;100938.75;4999906;28;97284;-72
2022/06/27 08:13:35;;;;;;;8.77;3.67;;;;;;;36.08;27.88;100939.94;5001225;28;96827;-72
2022/06/27 08:16:02;;;;;;;6.60;4.70;;;;;;;35.97;26.68;100936.78;5009252;28;99059;-71
2022/06/27 08:18:31;;;;;;;6.47;3.42;;;;;;;36.16;27.14;100939.72;5000798;28;99229;-71
2022/06/27 08:20:58;;;;;;;7.35;3.60;;;;;;;36.07;27.18;100932.75;4999538;28;97483;-71
2022/06/27 08:23:24;;;;;;;7.28;3.70;;;;;;;35.99;26.91;100932.97;5002070;28;97062;-71
2022/06/27 08:25:51;;;;;;;3.67;2.97;;;;;;;35.56;26.12;100928.81;5002651;28;101930;-72
2022/06/27 08:28:19;;;;;;;5.22;3.08;;;;;;;35.49;26.63;100921.66;5001211;28;100622;-71
2022/06/27 08:30:48;;;;;;;5.25;3.60;;;;;;;35.56;26.43;100922.50;5001191;28;97555;-72
2022/06/27 08:33:14;;;;;;;3.00;2.60;;;;;;;35.55;25.90;100921.63;5001786;28;97554;-71
2022/06/27 08:35:44;;;;;;;3.60;3.28;;;;;;;35.84;26.04;100928.56;5005894;28;99070;-72
2022/06/27 08:38:11;;;;;;;5.68;2.83;;;;;;;36.36;25.33;100923.16;5004918;28;100991;-71
2022/06/27 08:40:38;;;;;;;3.90;3.05;;;;;;;36.13;26.18;100923.63;5000208;28;98564;-71
2022/06/27 08:43:06;;;;;;;4.05;2.78;;;;;;;36.26;25.66;100910.72;5002548;28;97215;-73
2022/06/27 08:45:32;;;;;;;4.30;3.20;;;;;;;36.28;25.97;100919.59;5003226;28;99578;-72
2022/06/27 08:48:06;;;;;;;6.82;2.80;;;;;;;36.11;26.28;100925.75;4999838;28;98717;-71
2022/06/27 08:50:35;;;;;;;8.38;2.80;;;;;;;36.16;26.29;100920.47;4999368;28;97821;-71
2022/06/27 08:53:02;;;;;;;4.45;2.90;;;;;;;36.27;25.82;100930.81;5001985;28;96940;-71
2022/06/27 08:55:30;;;;;;;4.50;2.17;;;;;;;36.30;25.34;100919.38;4997905;28;99772;-71
2022/06/27 08:58:03;;;;;;;2.85;2.45;;;;;;;36.03;26.05;100926.88;4998459;28;99392;-71
2022/06/27 09:00:31;;;;;;;2.53;2.33;;;;;;;35.97;26.34;100918.63;5000148;28;97401;-72
2022/06/27 09:02:59;;;;;;;2.70;2.50;;;;;;;35.78;26.37;100914.84;5005413;28;96859;-72
2022/06/27 09:05:28;;;;;;;3.15;2.28;;;;;;;35.72;26.31;100919.31;5001422;28;98826;-72
2022/06/27 09:07:56;;;;;;;3.47;2.38;;;;;;;35.79;26.63;100919.28;5007768;28;98827;-72
2022/06/27 09:10:29;;;;;;;2.78;2.20;;;;;;;35.67;26.93;100915.47;5001690;28;97376;-71
2022/06/27 09:12:58;;;;;;;2.92;1.70;;;;;;;35.57;26.18;100924.19;5003611;28;97392;-72
2022/06/27 09:15:28;;;;;;;6.20;2.05;;;;;;;35.80;26.66;100915.47;5004460;28;99604;-72
2022/06/27 09:18:04;;;;;;;4.07;2.25;;;;;;;36.16;26.46;100909.47;5007105;28;101872;-71
2022/06/27 09:20:46;;;;;;;5.43;2.10;;;;;;;35.76;26.87;100912.34;5002851;28;97535;-72
2022/06/27 09:23:38;;;;;;;2.47;2.30;;;;;;;36.07;26.37;100914.34;5006289;28;96991;-72
2022/06/27 09:26:09;;;;;;;4.18;2.35;;;;;;;36.40;26.02;100907.91;5002841;28;99038;-70
2022/06/27 09:28:42;;;;;;;6.07;2.70;;;;;;;36.12;26.19;100916.44;5004026;28;99189;-71
2022/06/27 09:31:10;;;;;;;2.25;2.10;;;;;;;36.02;25.63;100888.56;5007306;28;96817;-72
2022/06/27 09:33:41;;;;;;;7.28;2.58;;;;;;;36.05;26.30;100904.63;5005369;28;99074;-72
2022/06/27 09:36:12;;;;;;;3.47;2.30;;;;;;;36.21;26.19;100895.94;5007260;28;98977;-72
2022/06/27 09:38:43;;;;;;;2.50;2.30;;;;;;;35.99;26.46;100895.34;5003789;28;101985;-71
2022/06/27 09:41:14;;;;;;;4.28;2.70;;;;;;;36.12;26.33;100895.28;5003425;28;97766;-71
2022/06/27 09:43:46;;;;;;;3.97;2.45;;;;;;;36.30;25.68;100903.69;5004594;28;97673;-71
2022/06/27 09:46:14;;;;;;;2.58;2.38;;;;;;;35.94;26.14;100897.91;5010399;28;101476;-72
2022/06/27 09:48:44;;;;;;;2.40;2.20;;;;;;;36.24;25.76;100896.31;5003108;28;100082;-72
2022/06/27 09:51:15;;;;;;;3.88;2.35;;;;;;;36.34;25.19;100893.13;5002356;28;98880;-72
2022/06/27 09:53:47;;;;;;;5.57;2.70;;;;;;;36.22;25.10;100897.63;5012056;28;97897;-73
2022/06/27 09:56:15;;;;;;;3.83;2.50;;;;;;;36.40;25.29;100900.50;5001669;28;100046;-72
2022/06/27 09:58:42;;;;;;;3.58;2.30;;;;;;;36.40;25.00;100894.97;5004590;28;99548;-71
2022/06/27 10:01:11;;;;;;;2.47;2.10;;;;;;;36.40;24.71;100894.97;5003934;28;97812;-72
2022/06/27 10:03:38;;;;;;;2.92;2.10;;;;;;;36.37;23.83;100891.81;5010105;28;97847;-71
2022/06/27 10:06:06;;;;;;;2.00;1.60;;;;;;;36.39;23.95;100885.03;5008081;28;101847;-72
2022/06/27 10:08:33;;;;;;;3.60;2.50;;;;;;;36.63;23.79;100887.00;5004772;28;101770;-72
2022/06/27 10:11:08;;;;;;;5.88;2.10;;;;;;;36.23;24.45;100878.16;5007286;28;97700;-72
2022/06/27 10:13:37;;;;;;;4.90;2.15;;;;;;;36.08;24.32;100880.28;5003508;28;96884;-71
2022/06/27 10:16:13;;;;;;;2.67;1.90;;;;;;;36.35;24.16;100883.81;5002931;28;98959;-71
2022/06/27 10:19:03;;;;;;;4.28;2.10;;;;;;;36.10;24.08;100880.94;5010015;28;100135;-71
2022/06/27 10:21:41;;;;;;;4.47;1.80;;;;;;;36.10;24.49;100883.69;5007021;28;97171;-72
2022/06/27 10:24:34;;;;;;;5.60;1.77;;;;;;;36.02;24.42;100883.06;5004232;28;98664;-72
2022/06/27 10:27:06;;;;;;;3.75;1.83;;;;;;;36.24;24.46;100882.56;5008789;28;98993;-72
2022/06/27 10:29:42;;;;;;;3.72;1.70;;;;;;;36.34;24.13;100890.34;4999150;28;99529;-70
2022/06/27 10:32:29;;;;;;;2.92;1.50;;;;;;;36.10;23.88;100882.84;5003444;28;97684;-70
2022/06/27 10:35:09;;;;;;;3.70;1.88;;;;;;;36.41;23.86;100871.06;5007495;28;96844;-71
2022/06/27 10:37:38;;;;;;;3.00;1.90;;;;;;;36.41;24.50;100871.06;5004681;28;99537;-70
2022/06/27 10:40:53;;;;;;;2.58;2.30;;;;;;;36.37;25.05;100867.91;5002562;28;99145;-72
2022/06/27 10:43:40;;;;;;;2.67;1.90;;;;;;;36.22;25.15;100859.94;5011033;28;97516;-71
2022/06/27 10:46:52;;;;;;;3.85;1.90;;;;;;;36.50;24.41;100859.56;5007317;28;96948;-71
2022/06/27 10:49:24;;;;;;;3.97;2.17;;;;;;;36.92;24.01;100873.72;5003350;28;99205;-72
2022/06/27 10:51:51;;;;;;;7.88;2.13;;;;;;;36.77;24.46;100867.69;5006504;28;100311;-72
2022/06/27 10:54:20;;;;;;;4.90;1.75;;;;;;;36.53;24.22;100869.28;5005605;28;97272;-72
2022/06/27 10:56:48;;;;;;;3.70;1.88;;;;;;;36.48;24.14;100858.13;5002759;28;97024;-71
2022/06/27 10:59:58;;;;;;;4.75;1.80;;;;;;;36.92;23.68;100859.94;5000903;28;98934;-72
2022/06/27 11:02:29;;;;;;;5.00;1.85;;;;;;;36.86;22.43;100863.59;5001918;28;99101;-72
2022/06/27 11:04:57;;;;;;;4.85;1.65;;;;;;;36.60;22.92;100859.94;5003885;28;99625;-72
2022/06/27 11:07:24;;;;;;;1.88;1.77;;;;;;;36.66;22.58;100853.56;5011277;28;98056;-72
2022/06/27 11:09:52;;;;;;;3.40;1.83;;;;;;;37.03;22.56;100853.69;5002578;28;101673;-71
2022/06/27 11:12:23;;;;;;;4.30;1.85;;;;;;;36.55;22.63;100843.25;5003540;28;100586;-73
2022/06/27 11:14:50;;;;;;;1.95;1.70;;;;;;;36.62;22.84;100851.47;5003368;28;98516;-71
2022/06/27 11:17:40;;;;;;;4.13;2.15;;;;;;;36.50;22.10;100832.03;5003554;28;98347;-72
2022/06/27 11:20:23;;;;;;;5.07;1.65;;;;;;;36.65;22.79;100829.84;5005748;28;99544;-72
2022/06/27 11:22:52;;;;;;;4.20;1.75;;;;;;;36.95;22.30;100838.31;5005281;28;99344;-71
2022/06/27 11:25:24;;;;;;;1.80;1.70;;;;;;;37.29;22.40;100825.94;5007568;28;97007;-71
2022/06/27 11:27:54;;;;;;;4.00;2.17;;;;;;;37.37;22.49;100833.91;4995848;28;98065;-72
2022/06/27 11:33:14;;;;;;;2.88;2.03;;;;;;;37.49;22.31;100825.72;5000854;28;97204;-72